Time;durP1;ratioP1;P1;durP2;ratioP2;P2;SDS_P1;SDS_P2;PMS_P1;PMS_P2;Temp;Humidity;BMP_temperature;BMP_pressure;BME280_temperature;BME280_humidity;BME280_pressure;Samples;Min_cycle;Max_cycle;Signal;HPM_P1;HPM_P2
2022/12/14 00:02:11;;;;;;;18.27;8.77;;;;;;;-1.47;67.00;100409.22;5082658;28;20107;-91
2022/12/14 00:04:37;;;;;;;15.57;7.32;;;;;;;-1.51;66.64;100399.72;5081191;28;20034;-91
2022/12/14 00:07:02;;;;;;;13.48;7.07;;;;;;;-1.44;66.70;100410.97;5080413;28;20115;-91
2022/12/14 00:09:27;;;;;;;19.70;8.70;;;;;;;-1.53;67.09;100385.91;5071936;28;20023;-91
2022/12/14 00:11:52;;;;;;;14.52;7.57;;;;;;;-1.45;66.87;100385.88;5083000;28;20027;-91
2022/12/14 00:14:18;;;;;;;15.00;7.32;;;;;;;-1.51;67.05;100372.94;5083053;28;20024;-91
2022/12/14 00:16:43;;;;;;;15.10;7.35;;;;;;;-1.48;67.16;100381.59;5083145;28;20032;-91
2022/12/14 00:19:09;;;;;;;19.13;7.80;;;;;;;-1.55;67.32;100378.09;5094307;28;20134;-91
2022/12/14 00:21:35;;;;;;;16.58;8.02;;;;;;;-1.62;67.28;100362.56;5086674;28;20506;-92
2022/12/14 00:24:00;;;;;;;17.55;8.30;;;;;;;-1.51;67.30;100386.75;5091520;28;20035;-91
2022/12/14 00:26:28;;;;;;;17.10;7.13;;;;;;;-1.52;66.97;100379.84;5084710;28;20703;-91
2022/12/14 00:28:54;;;;;;;16.55;7.82;;;;;;;-1.61;67.23;100366.88;5109886;28;20035;-91
2022/12/14 00:31:21;;;;;;;14.23;7.32;;;;;;;-1.66;67.52;100368.59;5086127;28;20376;-90
2022/12/14 00:33:47;;;;;;;16.52;7.80;;;;;;;-1.67;67.30;100369.47;5082057;28;20491;-92
2022/12/14 00:36:13;;;;;;;14.52;6.53;;;;;;;-1.63;66.80;100374.66;5111693;28;20059;-91
2022/12/14 00:38:39;;;;;;;18.77;7.82;;;;;;;-1.62;66.77;100381.56;5105456;28;20472;-91
2022/12/14 00:41:05;;;;;;;16.42;8.05;;;;;;;-1.69;66.42;100359.06;5105201;28;20028;-92
2022/12/14 00:43:30;;;;;;;15.77;7.75;;;;;;;-1.64;66.87;100359.94;5085163;28;20028;-90
2022/12/14 00:45:56;;;;;;;16.25;8.20;;;;;;;-1.74;66.63;100350.44;5081496;28;20031;-92
2022/12/14 00:48:23;;;;;;;16.55;7.60;;;;;;;-1.73;66.46;100349.56;5081267;28;20046;-91
2022/12/14 00:50:50;;;;;;;15.85;7.40;;;;;;;-1.71;66.78;100345.25;5074169;28;20044;-91
2022/12/14 00:53:16;;;;;;;12.80;6.80;;;;;;;-1.70;66.80;100347.00;5075194;28;20116;-91
2022/12/14 00:55:43;;;;;;;15.73;7.25;;;;;;;-1.79;66.69;100328.84;5077622;28;20122;-92
2022/12/14 00:58:10;;;;;;;11.13;6.57;;;;;;;-1.80;67.08;100340.06;5078219;27;20027;-91
2022/12/14 01:00:36;;;;;;;13.32;7.25;;;;;;;-1.97;67.06;100319.28;5086371;28;20027;-92
2022/12/14 01:03:02;;;;;;;16.08;7.47;;;;;;;-1.95;67.13;100335.72;5081102;28;20035;-91
2022/12/14 01:05:28;;;;;;;18.38;7.55;;;;;;;-2.08;67.15;100313.22;5077739;28;20036;-91
2022/12/14 01:07:53;;;;;;;20.55;8.40;;;;;;;-1.99;67.01;100325.34;5084687;28;20022;-92
2022/12/14 01:10:18;;;;;;;13.07;6.60;;;;;;;-2.17;67.10;100319.25;5084094;28;20066;-91
2022/12/14 01:12:44;;;;;;;16.85;7.43;;;;;;;-2.15;67.31;100320.09;5093972;28;20023;-91
2022/12/14 01:15:09;;;;;;;12.85;7.28;;;;;;;-2.18;67.71;100316.66;5082069;28;20028;-92
2022/12/14 01:17:35;;;;;;;14.57;7.05;;;;;;;-2.25;67.08;100302.81;5102007;28;20503;-91
2022/12/14 01:20:00;;;;;;;16.35;7.82;;;;;;;-2.24;67.70;100314.03;5093515;28;20367;-92
2022/12/14 01:22:25;;;;;;;16.38;7.88;;;;;;;-2.35;67.69;100294.16;5109388;28;20524;-91
2022/12/14 01:24:51;;;;;;;14.63;7.22;;;;;;;-2.41;67.17;100296.72;5075460;28;20028;-91
2022/12/14 01:27:16;;;;;;;16.35;7.25;;;;;;;-2.38;67.91;100307.09;5083091;28;20497;-91
2022/12/14 01:29:41;;;;;;;14.07;7.75;;;;;;;-2.38;68.27;100296.75;5088561;28;20024;-91
2022/12/14 01:32:07;;;;;;;11.77;6.40;;;;;;;-2.34;67.58;100298.47;5083709;28;20024;-91
2022/12/14 01:34:32;;;;;;;17.67;7.70;;;;;;;-2.32;68.02;100290.72;5076901;28;20035;-91
2022/12/14 01:36:57;;;;;;;17.67;7.47;;;;;;;-2.17;67.79;100305.44;5076234;28;20077;-91
2022/12/14 01:39:23;;;;;;;19.45;7.80;;;;;;;-2.24;67.73;100307.13;5085209;28;20402;-91
2022/12/14 01:41:51;;;;;;;13.73;7.05;;;;;;;-2.33;67.52;100287.28;5080636;28;20058;-91
2022/12/14 01:44:16;;;;;;;13.60;6.30;;;;;;;-2.19;67.67;100308.03;5078148;27;20028;-91
2022/12/14 01:46:42;;;;;;;14.75;6.65;;;;;;;-2.18;67.66;100304.56;5088449;28;20034;-91
2022/12/14 01:49:13;;;;;;;13.57;6.88;;;;;;;-2.19;67.62;100307.13;5100023;28;20026;-91
2022/12/14 01:51:45;;;;;;;20.40;8.65;;;;;;;-2.27;67.74;100307.13;5079758;28;20032;-91
2022/12/14 01:54:13;;;;;;;19.50;7.32;;;;;;;-2.26;67.34;100311.44;5088212;28;20036;-91
2022/12/14 01:56:41;;;;;;;19.08;8.35;;;;;;;-2.35;67.55;100303.66;5086853;28;20023;-90
2022/12/14 01:59:13;;;;;;;14.93;7.53;;;;;;;-2.32;67.51;100291.59;5079085;28;20023;-91
2022/12/14 02:01:39;;;;;;;;;;;;;;;-2.18;67.41;100303.72;5099663;28;20498;-91
2022/12/14 02:04:05;;;;;;;15.02;7.53;;;;;;;-2.33;67.70;100301.94;5090091;27;19916;-91
2022/12/14 02:06:39;;;;;;;13.38;6.60;;;;;;;-2.38;67.83;100289.00;5101359;27;20032;-91
2022/12/14 02:09:10;;;;;;;18.30;7.78;;;;;;;-2.34;67.62;100295.88;5081793;28;20625;-91
2022/12/14 02:12:05;;;;;;;16.52;7.75;;;;;;;-2.34;68.03;100284.66;5104150;28;20027;-91
2022/12/14 02:17:52;;;;;;;15.77;7.47;;;;;;;-2.36;67.86;100278.63;5105020;27;20514;-91
2022/12/14 02:20:20;;;;;;;17.75;7.18;;;;;;;-2.34;68.22;100274.31;5079725;28;20035;-91
2022/12/14 02:23:13;;;;;;;16.88;7.35;;;;;;;-2.28;68.08;100287.28;5104488;28;20028;-91
2022/12/14 02:26:07;;;;;;;15.80;7.35;;;;;;;-2.37;68.12;100276.91;5075002;28;20102;-91
2022/12/14 02:28:51;;;;;;;13.43;6.45;;;;;;;-2.36;68.23;100276.91;5081993;28;20016;-91
2022/12/14 02:31:47;;;;;;;14.55;7.35;;;;;;;-2.44;68.17;100267.38;5080446;28;20483;-91
2022/12/14 02:34:37;;;;;;;16.63;8.07;;;;;;;-2.43;68.36;100259.59;5089634;27;20482;-90
2022/12/14 02:37:14;;;;;;;17.05;7.45;;;;;;;-2.48;68.38;100256.16;5081319;28;20084;-91
2022/12/14 02:39:55;;;;;;;16.45;8.45;;;;;;;-2.54;68.40;100260.44;5080904;28;20027;-91
2022/12/14 02:42:32;;;;;;;17.85;7.55;;;;;;;-2.56;68.02;100265.63;5077210;28;20479;-91
2022/12/14 02:45:07;;;;;;;15.23;6.80;;;;;;;-2.49;68.27;100279.44;5090038;28;20528;-91
2022/12/14 02:47:39;;;;;;;18.67;7.57;;;;;;;-2.55;68.39;100264.75;5079650;28;20020;-91
2022/12/14 02:50:32;;;;;;;17.13;8.25;;;;;;;-2.49;67.99;100269.09;5093721;28;20052;-91
2022/12/14 02:53:22;;;;;;;16.60;7.20;;;;;;;-2.52;68.13;100261.31;5086612;28;20478;-91
2022/12/14 02:55:53;;;;;;;14.43;7.45;;;;;;;-2.53;68.51;100273.38;5084664;28;20023;-91
2022/12/14 02:58:28;;;;;;;17.60;6.88;;;;;;;-2.60;68.36;100258.72;5075827;28;20032;-91
2022/12/14 03:00:56;;;;;;;13.18;7.25;;;;;;;-2.62;68.34;100255.22;5094954;28;20028;-91
2022/12/14 03:03:22;;;;;;;16.98;7.30;;;;;;;-2.55;68.72;100245.78;5079821;28;20061;-91
2022/12/14 03:06:01;;;;;;;16.90;7.90;;;;;;;-2.50;68.61;100239.75;5079688;28;20495;-91
2022/12/14 03:08:30;;;;;;;18.52;7.75;;;;;;;-2.41;68.27;100249.28;5073736;28;20020;-91
2022/12/14 03:10:58;;;;;;;13.27;7.53;;;;;;;-2.38;68.28;100263.09;5077195;28;20502;-91
2022/12/14 03:13:29;;;;;;;15.73;7.45;;;;;;;-2.39;68.40;100253.59;5082007;28;20031;-91
2022/12/14 03:16:00;;;;;;;14.45;6.95;;;;;;;-2.27;68.31;100277.78;5094919;28;20035;-91
2022/12/14 03:18:32;;;;;;;15.10;7.88;;;;;;;-2.27;68.50;100270.88;5088937;28;20410;-91
2022/12/14 03:20:59;;;;;;;13.43;6.90;;;;;;;-2.30;68.42;100257.94;5079538;28;20030;-92
2022/12/14 03:23:31;;;;;;;13.32;7.75;;;;;;;-2.30;68.12;100260.50;5075250;28;20196;-92
2022/12/14 03:26:24;;;;;;;14.40;7.40;;;;;;;-2.21;68.27;100259.69;5077448;28;20024;-91
2022/12/14 03:29:18;;;;;;;15.98;7.82;;;;;;;-2.19;67.81;100255.34;5081945;28;20482;-91
2022/12/14 03:31:52;;;;;;;17.90;7.93;;;;;;;-2.18;67.64;100247.63;5103732;28;20028;-91
2022/12/14 03:34:22;;;;;;;19.98;8.30;;;;;;;-2.20;67.64;100227.75;5099112;28;20066;-91
2022/12/14 03:36:55;;;;;;;17.25;8.13;;;;;;;-2.11;67.80;100231.22;5083296;28;20028;-91
2022/12/14 03:39:24;;;;;;;;;;;;;;;-2.04;67.86;100226.06;5084074;28;20127;-91
2022/12/14 03:41:59;;;;;;;19.05;8.75;;;;;;;-2.10;67.85;100232.97;5077344;28;19912;-92
2022/12/14 03:44:56;;;;;;;17.48;8.82;;;;;;;-2.13;67.92;100222.59;5075797;28;20538;-91
2022/12/14 03:47:25;;;;;;;17.45;7.70;;;;;;;-2.10;67.69;100220.00;5072159;28;20031;-91
2022/12/14 03:50:04;;;;;;;15.57;8.10;;;;;;;-2.11;67.64;100220.84;5101719;28;20035;-92
2022/12/14 03:52:51;;;;;;;14.30;6.65;;;;;;;-2.12;67.95;100218.28;5083828;28;20035;-92
2022/12/14 03:55:16;;;;;;;16.27;8.73;;;;;;;-2.06;67.72;100226.91;5108440;28;20048;-91
2022/12/14 03:57:58;;;;;;;16.08;7.43;;;;;;;-2.13;67.45;100214.81;5076269;28;20122;-90
2022/12/14 04:00:25;;;;;;;16.48;8.27;;;;;;;-2.04;67.53;100220.88;5080607;28;20016;-90
2022/12/14 04:03:14;;;;;;;14.10;7.18;;;;;;;-2.08;67.48;100199.28;5084494;28;20501;-90
2022/12/14 04:05:57;;;;;;;15.13;7.45;;;;;;;-2.02;67.83;100198.41;5080402;28;20466;-92
2022/12/14 04:08:37;;;;;;;16.98;8.07;;;;;;;-2.01;67.61;100202.72;5092594;28;20020;-91
2022/12/14 04:19:39;;;;;;;15.23;7.57;;;;;;;-2.09;68.52;100185.47;5102044;28;20097;-91
2022/12/14 04:22:17;;;;;;;17.70;7.82;;;;;;;-2.05;68.80;100188.94;5078091;28;20082;-91
2022/12/14 04:27:42;;;;;;;13.50;7.65;;;;;;;-2.12;68.14;100175.09;5094240;28;20035;-91
2022/12/14 04:30:09;;;;;;;14.43;8.40;;;;;;;-2.07;68.24;100181.16;5081480;28;20143;-91
2022/12/14 04:32:39;;;;;;;12.57;6.78;;;;;;;-2.11;68.32;100170.78;5081115;28;20536;-91
2022/12/14 04:35:14;;;;;;;18.02;8.45;;;;;;;-2.13;68.52;100160.44;5078205;28;20024;-91
2022/12/14 04:37:43;;;;;;;19.27;7.88;;;;;;;-2.12;68.13;100166.47;5081891;28;20157;-92
2022/12/14 04:40:13;;;;;;;14.50;7.60;;;;;;;-2.09;68.33;100169.94;5081293;28;20109;-90
2022/12/14 04:42:51;;;;;;;15.38;7.05;;;;;;;-2.15;68.33;100148.34;5093670;28;20495;-90
2022/12/14 04:45:26;;;;;;;14.90;8.07;;;;;;;-2.05;68.17;100150.09;5081510;28;20028;-91
2022/12/14 04:48:06;;;;;;;14.07;8.00;;;;;;;-2.04;68.28;100156.13;5078944;28;20066;-91
2022/12/14 04:50:37;;;;;;;15.23;7.70;;;;;;;-2.11;68.34;100140.56;5088102;28;20503;-91
2022/12/14 04:53:10;;;;;;;14.27;7.22;;;;;;;-1.99;68.44;100164.75;5078286;28;20148;-91
2022/12/14 04:55:45;;;;;;;12.77;7.90;;;;;;;-2.11;68.51;100140.56;5077634;28;20069;-91
2022/12/14 04:58:20;;;;;;;14.48;7.00;;;;;;;-2.00;68.44;100156.13;5081614;28;20371;-91
2022/12/14 05:00:57;;;;;;;15.90;7.85;;;;;;;-1.98;68.51;100159.56;5093922;28;20028;-91
2022/12/14 05:03:34;;;;;;;12.55;6.80;;;;;;;-2.07;68.57;100138.84;5080973;28;20071;-91
2022/12/14 05:06:25;;;;;;;13.25;7.30;;;;;;;-2.00;68.60;100147.50;5076281;28;20028;-91
2022/12/14 05:08:59;;;;;;;14.55;7.38;;;;;;;-1.99;68.86;100142.31;5073560;28;20085;-91
2022/12/14 05:11:38;;;;;;;17.50;6.95;;;;;;;-2.04;68.96;100136.28;5094938;28;20027;-91
2022/12/14 05:14:10;;;;;;;19.33;9.13;;;;;;;-2.06;68.52;100143.16;5100057;27;20364;-91
2022/12/14 05:16:36;;;;;;;16.27;8.07;;;;;;;-2.10;68.14;100137.16;5077175;28;21074;-90
2022/12/14 05:19:05;;;;;;;18.15;8.02;;;;;;;-2.15;67.91;100130.22;5083021;28;20040;-91
2022/12/14 05:21:46;;;;;;;15.70;7.25;;;;;;;-2.20;68.00;100130.22;5084336;28;20051;-91
2022/12/14 05:24:11;;;;;;;12.85;7.32;;;;;;;-2.23;68.30;100132.81;5081428;28;20039;-91
2022/12/14 05:26:37;;;;;;;12.60;6.57;;;;;;;-2.26;68.47;100126.78;5098666;28;20015;-91
2022/12/14 05:29:02;;;;;;;14.50;7.05;;;;;;;-2.20;68.56;100137.97;5087220;28;20471;-92
2022/12/14 05:31:27;;;;;;;14.63;7.90;;;;;;;-2.27;68.71;100122.47;5098063;28;20036;-94
2022/12/14 05:33:53;;;;;;;14.25;7.68;;;;;;;-2.27;68.72;100125.91;5081516;28;20036;-94
2022/12/14 05:36:18;;;;;;;13.30;7.07;;;;;;;-2.31;68.85;100111.25;5081979;28;20027;-94
2022/12/14 05:38:44;;;;;;;17.88;8.65;;;;;;;-2.23;69.14;100121.59;5082799;28;20049;-91
2022/12/14 05:41:09;;;;;;;14.73;7.53;;;;;;;-2.22;69.54;100119.00;5101295;28;20047;-91
2022/12/14 05:43:34;;;;;;;15.45;7.53;;;;;;;-2.18;69.24;100123.31;5105670;27;20042;-90
2022/12/14 05:46:01;;;;;;;13.75;7.93;;;;;;;-2.24;69.42;100114.69;5081687;28;20019;-91
2022/12/14 05:48:27;;;;;;;16.00;8.50;;;;;;;-2.28;69.34;100116.44;5083304;28;20494;-91
2022/12/14 05:50:52;;;;;;;17.55;8.77;;;;;;;-2.26;68.88;100119.88;5082990;28;20061;-92
2022/12/14 05:53:18;;;;;;;13.48;6.75;;;;;;;-2.25;69.42;100125.91;5076218;28;20514;-91
2022/12/14 05:55:50;;;;;;;17.13;7.80;;;;;;;-2.29;69.13;100119.00;5079598;28;20056;-91
2022/12/14 05:58:16;;;;;;;14.98;7.70;;;;;;;-2.26;69.02;100138.00;5082210;28;20528;-91
2022/12/14 06:00:42;;;;;;;14.45;6.75;;;;;;;-2.37;69.49;100121.59;5100085;28;20559;-91
2022/12/14 06:03:08;;;;;;;15.20;7.78;;;;;;;-2.31;69.97;100125.03;5089038;28;20164;-91
2022/12/14 06:05:33;;;;;;;16.50;8.02;;;;;;;-2.27;69.85;100120.75;5085043;28;20110;-91
2022/12/14 06:07:58;;;;;;;18.20;7.47;;;;;;;-2.37;69.75;100103.47;5082029;28;20476;-91
2022/12/14 06:10:24;;;;;;;13.43;7.28;;;;;;;-2.31;69.52;100116.41;5079483;28;20038;-91
2022/12/14 06:12:50;;;;;;;15.32;7.47;;;;;;;-2.42;69.27;100105.22;5083497;28;20498;-91
2022/12/14 06:15:15;;;;;;;14.27;7.28;;;;;;;-2.35;69.34;100114.69;5076072;28;20032;-91
2022/12/14 06:17:44;;;;;;;14.10;7.25;;;;;;;-2.31;69.26;100114.69;5092123;28;20032;-91
2022/12/14 06:20:11;;;;;;;17.10;8.30;;;;;;;-2.36;69.23;100098.28;5104684;28;20024;-92
2022/12/14 06:22:36;;;;;;;15.25;7.95;;;;;;;-2.28;69.22;100098.31;5098729;28;20035;-91
2022/12/14 06:25:01;;;;;;;14.80;7.15;;;;;;;-2.34;69.63;100091.38;5083129;28;20395;-92
2022/12/14 06:27:27;;;;;;;15.45;8.00;;;;;;;-2.18;69.52;100112.13;5086766;28;20471;-91
2022/12/14 06:29:52;;;;;;;15.50;7.22;;;;;;;-2.24;69.42;100102.59;5097978;28;20510;-90
2022/12/14 06:32:17;;;;;;;17.20;8.15;;;;;;;-2.25;69.95;100092.25;5082556;28;20036;-92
2022/12/14 06:34:44;;;;;;;14.10;6.97;;;;;;;-2.18;69.34;100109.53;5099355;28;20035;-91
2022/12/14 06:37:09;;;;;;;12.43;7.40;;;;;;;-2.24;69.14;100106.91;5086315;28;20482;-93
2022/12/14 06:39:35;;;;;;;14.43;7.22;;;;;;;-2.31;69.48;100104.34;5101963;28;20053;-91
2022/12/14 06:42:00;;;;;;;25.55;8.30;;;;;;;-2.25;69.91;100108.63;5089455;28;20080;-91
2022/12/14 06:44:25;;;;;;;15.45;8.10;;;;;;;-2.27;69.71;100106.94;5078138;28;20111;-92
2022/12/14 06:46:51;;;;;;;16.45;8.13;;;;;;;-2.27;69.55;100107.78;5082164;28;20031;-91
2022/12/14 06:49:16;;;;;;;13.57;7.40;;;;;;;-2.17;69.93;100122.47;5108236;28;20466;-91
2022/12/14 06:51:42;;;;;;;17.23;8.70;;;;;;;-2.18;70.18;100117.28;5075016;28;20439;-91
2022/12/14 06:54:09;;;;;;;15.63;7.18;;;;;;;-2.17;70.18;100122.47;5077427;28;20210;-90
2022/12/14 06:56:35;;;;;;;23.13;8.55;;;;;;;-2.18;70.07;100114.69;5088872;28;20085;-92
2022/12/14 06:59:00;;;;;;;19.92;8.45;;;;;;;-2.19;70.27;100116.44;5082790;28;20027;-92
2022/12/14 07:01:26;;;;;;;15.27;7.72;;;;;;;-2.32;69.63;100099.16;5080207;28;20498;-90
2022/12/14 07:03:54;;;;;;;14.45;7.53;;;;;;;-2.17;70.04;100130.22;5078770;28;20035;-91
2022/12/14 07:06:20;;;;;;;15.00;7.43;;;;;;;-2.28;70.20;100107.81;5079305;28;20020;-91
2022/12/14 07:08:46;;;;;;;15.05;7.70;;;;;;;-2.26;70.25;100121.59;5085629;28;20048;-91
2022/12/14 07:11:14;;;;;;;18.23;7.57;;;;;;;-2.16;70.54;100134.53;5077404;28;20567;-91
2022/12/14 07:13:40;;;;;;;16.52;7.63;;;;;;;-2.15;70.82;100130.22;5096887;28;20387;-91
2022/12/14 07:16:07;;;;;;;14.77;7.85;;;;;;;-2.08;70.44;100137.13;5079752;28;20030;-91
2022/12/14 07:18:33;;;;;;;18.15;8.63;;;;;;;-2.10;70.47;100131.06;5088034;28;21065;-91
2022/12/14 07:21:07;;;;;;;18.35;8.55;;;;;;;-2.10;70.46;100138.84;5081525;28;20165;-91
2022/12/14 07:23:36;;;;;;;16.83;8.88;;;;;;;-2.11;70.75;100134.53;5081869;28;20385;-91
2022/12/14 07:26:04;;;;;;;17.40;8.40;;;;;;;-2.14;70.61;100132.81;5081541;28;20024;-91
2022/12/14 07:28:29;;;;;;;15.43;8.27;;;;;;;-2.21;70.72;100119.88;5086258;28;20105;-91
2022/12/14 07:30:56;;;;;;;15.20;8.07;;;;;;;-2.18;70.59;100127.66;5094268;28;20059;-91
2022/12/14 07:33:21;;;;;;;17.23;8.05;;;;;;;-2.26;70.41;100127.63;5079390;28;20016;-92
2022/12/14 07:35:46;;;;;;;18.80;8.55;;;;;;;-2.29;70.21;100131.94;5077847;28;20034;-91
2022/12/14 07:38:11;;;;;;;19.00;7.90;;;;;;;-2.32;70.43;100122.47;5084395;28;20086;-90
2022/12/14 07:40:37;;;;;;;19.02;8.48;;;;;;;-2.28;70.06;100142.31;5095200;27;20028;-91
2022/12/14 07:43:03;;;;;;;15.10;8.10;;;;;;;-2.35;70.39;100132.81;5073578;28;20162;-91
2022/12/14 07:45:29;;;;;;;15.63;8.40;;;;;;;-2.34;70.49;100140.56;5077862;28;20549;-91
2022/12/14 07:47:55;;;;;;;13.60;7.57;;;;;;;-2.56;70.58;100107.78;5091563;28;20020;-91
2022/12/14 07:50:20;;;;;;;14.25;7.22;;;;;;;-2.49;70.65;100125.03;5081142;28;20050;-91
2022/12/14 07:52:46;;;;;;;15.45;7.40;;;;;;;-2.45;70.77;100144.88;5078359;28;20034;-91
2022/12/14 07:55:11;;;;;;;14.90;7.88;;;;;;;-2.48;70.70;100133.66;5080385;28;20024;-91
2022/12/14 07:57:36;;;;;;;13.48;7.63;;;;;;;-2.46;70.71;100134.53;5080862;28;20024;-91
2022/12/14 08:00:02;;;;;;;12.68;7.50;;;;;;;-2.49;70.89;100137.97;5095705;28;20114;-91
2022/12/14 08:02:27;;;;;;;17.13;8.20;;;;;;;-2.63;71.08;100129.31;5102524;28;20019;-90
2022/12/14 08:04:53;;;;;;;18.05;8.55;;;;;;;-2.53;70.87;100138.81;5087960;28;20031;-91
2022/12/14 08:07:18;;;;;;;14.82;7.53;;;;;;;-2.53;70.76;100145.72;5095857;28;20030;-90
2022/12/14 08:09:43;;;;;;;16.35;8.20;;;;;;;-2.49;71.24;100137.09;5093454;28;20096;-91
2022/12/14 08:12:08;;;;;;;16.52;9.00;;;;;;;-2.46;71.06;100147.47;5080095;28;20123;-91
2022/12/14 08:14:34;;;;;;;16.35;7.65;;;;;;;-2.44;70.83;100146.59;5074001;28;20028;-91
2022/12/14 08:16:59;;;;;;;17.60;8.55;;;;;;;-2.44;71.04;100149.19;5082573;28;20047;-91
2022/12/14 08:19:24;;;;;;;17.73;7.55;;;;;;;-2.32;70.47;100153.53;5098393;28;20027;-91
2022/12/14 08:21:50;;;;;;;16.52;8.40;;;;;;;-2.32;70.83;100163.88;5080569;28;20378;-91
2022/12/14 08:24:18;;;;;;;20.00;9.27;;;;;;;-2.37;70.66;100161.28;5075107;28;20023;-91
2022/12/14 08:26:44;;;;;;;19.35;7.85;;;;;;;-2.29;70.25;100169.03;5073244;28;20024;-91
2022/12/14 08:29:11;;;;;;;16.90;8.25;;;;;;;-2.27;70.09;100158.72;5076490;28;20468;-90
2022/12/14 08:31:36;;;;;;;15.68;8.60;;;;;;;-2.20;70.01;100157.84;5074358;28;20032;-91
2022/12/14 08:34:02;;;;;;;14.70;7.70;;;;;;;-2.25;69.89;100154.38;5074944;28;20043;-91
2022/12/14 08:36:31;;;;;;;21.40;9.57;;;;;;;-2.22;69.87;100163.03;5076978;28;20117;-91
2022/12/14 08:38:58;;;;;;;15.85;8.25;;;;;;;-2.26;69.83;100157.84;5072261;28;20573;-91
2022/12/14 08:41:25;;;;;;;15.25;8.80;;;;;;;-2.31;69.87;100147.47;5074007;28;20023;-91
2022/12/14 08:43:52;;;;;;;19.08;8.00;;;;;;;-2.26;69.59;100163.88;5078493;28;20031;-90
2022/12/14 08:46:19;;;;;;;20.23;8.70;;;;;;;-2.18;69.29;100174.25;5083915;28;20107;-90
2022/12/14 08:48:45;;;;;;;14.07;7.55;;;;;;;-2.19;70.19;100160.44;5083520;28;20019;-90
2022/12/14 08:51:11;;;;;;;18.30;8.73;;;;;;;-2.00;69.29;100157.88;5086368;28;20178;-90
2022/12/14 08:53:37;;;;;;;15.60;8.18;;;;;;;-1.93;68.89;100165.63;5099805;28;20111;-91
2022/12/14 08:56:07;;;;;;;14.77;8.35;;;;;;;-2.00;69.05;100165.63;5090359;28;20024;-91
2022/12/14 08:58:32;;;;;;;17.55;7.97;;;;;;;-2.07;69.13;100149.22;5076970;28;20032;-90
2022/12/14 09:01:06;;;;;;;16.10;8.13;;;;;;;-2.08;69.14;100144.91;5103244;27;20015;-91
2022/12/14 09:03:32;;;;;;;15.57;8.63;;;;;;;-1.88;68.72;100169.06;5079728;28;20031;-91
2022/12/14 09:06:06;;;;;;;16.30;8.32;;;;;;;-1.82;68.91;100160.41;5084871;28;20038;-91
2022/12/14 09:08:31;;;;;;;21.85;8.93;;;;;;;-1.42;68.35;100158.63;5086864;28;20054;-91
2022/12/14 09:10:57;;;;;;;12.93;7.80;;;;;;;-0.42;66.84;100159.06;5105360;28;20047;-91
2022/12/14 09:13:22;;;;;;;17.83;9.65;;;;;;;0.69;63.83;100154.59;5095396;27;20156;-91
2022/12/14 09:16:06;;;;;;;14.07;7.97;;;;;;;1.85;62.89;100164.38;5099443;28;20241;-91
2022/12/14 09:18:33;;;;;;;18.42;8.40;;;;;;;2.19;59.23;100175.09;5080331;28;20472;-92
2022/12/14 09:20:58;;;;;;;13.10;7.95;;;;;;;2.52;58.19;100171.94;5083266;28;20360;-91
2022/12/14 09:23:26;;;;;;;14.70;7.35;;;;;;;3.70;54.50;100182.59;5084028;28;20026;-90
2022/12/14 09:26:15;;;;;;;13.90;7.57;;;;;;;3.39;53.96;100176.31;5082894;28;20028;-91
2022/12/14 09:28:43;;;;;;;12.60;7.15;;;;;;;2.65;54.34;100176.91;5099617;28;20467;-90
2022/12/14 09:31:11;;;;;;;20.08;8.65;;;;;;;2.86;54.54;100186.09;5087519;28;20146;-90
2022/12/14 09:33:38;;;;;;;14.43;7.32;;;;;;;4.10;52.28;100192.09;5101841;28;20028;-90
2022/12/14 09:36:12;;;;;;;12.85;7.18;;;;;;;5.01;53.41;100172.28;5092030;28;20028;-91
2022/12/14 09:38:38;;;;;;;15.00;7.53;;;;;;;6.38;49.60;100168.06;5082596;28;20459;-90
2022/12/14 09:41:14;;;;;;;17.30;7.45;;;;;;;8.05;47.98;100180.28;5082654;28;21352;-90
2022/12/14 09:43:54;;;;;;;11.07;7.03;;;;;;;9.39;45.27;100176.28;5081367;28;20063;-91
2022/12/14 09:46:37;;;;;;;15.00;7.32;;;;;;;10.45;42.33;100156.22;5085838;28;20372;-91
2022/12/14 09:49:02;;;;;;;;;;;;;;;11.26;47.39;100174.94;5077944;28;20055;-92
2022/12/14 09:51:33;;;;;;;12.20;6.57;;;;;;;11.99;37.78;100164.75;5076876;28;20020;-91
2022/12/14 09:54:11;;;;;;;11.50;6.75;;;;;;;12.55;37.25;100163.28;5086806;27;20069;-90
2022/12/14 09:56:38;;;;;;;10.93;6.25;;;;;;;12.80;33.84;100169.75;5098208;28;20031;-91
2022/12/14 09:59:04;;;;;;;10.52;5.72;;;;;;;12.95;35.86;100168.81;5095257;28;20425;-90
2022/12/14 10:01:52;;;;;;;9.63;6.00;;;;;;;13.65;36.04;100174.25;5080148;28;20185;-91
2022/12/14 10:04:30;;;;;;;10.52;6.50;;;;;;;13.95;33.22;100174.94;5083210;28;20024;-91
2022/12/14 10:07:17;;;;;;;11.88;5.97;;;;;;;14.50;32.59;100168.69;5093052;28;20486;-91
2022/12/14 10:09:55;;;;;;;11.90;6.32;;;;;;;14.74;32.43;100163.50;5093444;28;20486;-91
2022/12/14 10:12:30;;;;;;;9.43;6.28;;;;;;;14.95;31.27;100160.31;5079471;28;20448;-91
2022/12/14 10:15:23;;;;;;;9.80;6.28;;;;;;;15.66;35.12;100156.22;5075356;28;20032;-91
2022/12/14 10:18:19;;;;;;;9.32;6.03;;;;;;;15.94;31.91;100160.38;5078855;28;20480;-91
2022/12/14 10:21:13;;;;;;;10.50;5.97;;;;;;;16.35;32.26;100138.63;5092377;28;20522;-91
2022/12/14 10:23:44;;;;;;;13.80;6.65;;;;;;;16.90;27.38;100161.16;5101802;28;20035;-92
2022/12/14 10:26:15;;;;;;;9.88;6.07;;;;;;;17.41;28.07;100155.34;5105288;28;20039;-91
2022/12/14 10:28:51;;;;;;;10.07;6.00;;;;;;;17.56;28.31;100167.50;5075654;28;20657;-91
2022/12/14 10:31:32;;;;;;;8.10;5.80;;;;;;;17.47;29.33;100157.53;5078847;28;20925;-90
2022/12/14 10:34:11;;;;;;;8.80;5.70;;;;;;;17.85;26.53;100156.28;5104739;28;20023;-91
2022/12/14 10:36:49;;;;;;;9.13;5.95;;;;;;;17.93;25.79;100151.19;5085903;28;20386;-91
2022/12/14 10:39:46;;;;;;;9.20;6.72;;;;;;;18.48;30.25;100159.13;5088893;28;20103;-91
2022/12/14 10:42:21;;;;;;;8.65;5.95;;;;;;;18.72;25.27;100167.81;5082216;28;20543;-90
2022/12/14 10:44:51;;;;;;;8.77;6.10;;;;;;;18.70;23.55;100161.75;5086044;28;20023;-91
2022/12/14 10:47:33;;;;;;;9.70;6.20;;;;;;;18.79;22.75;100170.78;5080690;28;20036;-91
2022/12/14 10:50:18;;;;;;;11.30;7.03;;;;;;;19.07;27.26;100170.16;5084489;28;20612;-92
2022/12/14 10:52:46;;;;;;;11.88;6.70;;;;;;;19.03;23.62;100167.88;5101044;28;20039;-90
2022/12/14 10:55:17;;;;;;;10.93;6.32;;;;;;;18.90;24.00;100157.34;5076442;28;20360;-91
2022/12/14 10:57:42;;;;;;;9.25;6.63;;;;;;;18.92;24.55;100149.16;5077253;28;20024;-91
2022/12/14 11:00:14;;;;;;;16.65;6.50;;;;;;;19.18;23.90;100168.38;5072968;28;20035;-91
2022/12/14 11:02:42;;;;;;;11.33;6.80;;;;;;;19.65;23.63;100168.72;5099650;28;20023;-91
2022/12/14 11:05:17;;;;;;;9.70;6.80;;;;;;;19.86;23.33;100165.00;5074507;28;20286;-90
2022/12/14 11:07:44;;;;;;;10.85;7.07;;;;;;;19.67;21.96;100158.72;5095823;28;20537;-91
2022/12/14 11:10:23;;;;;;;9.75;6.30;;;;;;;19.81;23.03;100163.69;5074896;28;20046;-91
2022/12/14 11:12:58;;;;;;;8.82;6.20;;;;;;;20.03;24.19;100174.19;5095653;28;20479;-91
2022/12/14 11:15:28;;;;;;;9.80;6.40;;;;;;;19.96;22.60;100180.22;5075861;28;20091;-91
2022/12/14 11:18:27;;;;;;;10.15;7.22;;;;;;;19.91;25.48;100172.63;5100063;28;20024;-90
2022/12/14 11:21:02;;;;;;;11.35;6.78;;;;;;;19.88;23.52;100178.25;5075582;28;20035;-92
2022/12/14 11:23:34;;;;;;;10.80;6.88;;;;;;;20.10;20.23;100178.03;5083307;28;20592;-91
2022/12/14 11:26:02;;;;;;;10.70;7.10;;;;;;;20.35;21.51;100170.41;5076594;28;20054;-91
2022/12/14 11:28:32;;;;;;;15.40;6.95;;;;;;;20.29;21.07;100163.78;5081247;28;20028;-90
2022/12/14 11:31:13;;;;;;;8.68;6.03;;;;;;;20.25;23.39;100158.81;5093989;28;20098;-90
2022/12/14 11:33:44;;;;;;;10.30;7.10;;;;;;;20.28;21.02;100172.78;5091159;28;20428;-91
2022/12/14 11:36:22;;;;;;;11.77;6.70;;;;;;;20.49;23.29;100175.38;5084253;28;20026;-91
2022/12/14 11:39:00;;;;;;;9.82;7.05;;;;;;;20.68;22.89;100173.69;5084588;28;20505;-91
2022/12/14 11:41:34;;;;;;;10.63;6.90;;;;;;;20.56;21.90;100165.78;5080604;28;20035;-90
2022/12/14 11:44:19;;;;;;;11.40;6.72;;;;;;;20.58;21.64;100160.25;5079512;28;20020;-90
2022/12/14 11:46:48;;;;;;;9.20;6.57;;;;;;;20.54;20.07;100161.53;5080559;28;20043;-91
2022/12/14 11:49:34;;;;;;;10.85;6.53;;;;;;;20.61;22.77;100166.22;5096832;28;20088;-90
2022/12/14 11:52:15;;;;;;;9.48;6.60;;;;;;;20.53;22.11;100165.22;5090824;28;20380;-90